sensor_id;sensor_type;location;lat;lon;timestamp;temperature;humidity
18305;DHT22;9278;52.156;21.048;2023-04-23T00:02:22;8.80;1.00
18305;DHT22;9278;52.156;21.048;2023-04-23T00:07:22;8.70;1.00
18305;DHT22;9278;52.156;21.048;2023-04-23T00:09:51;8.80;1.00
18305;DHT22;9278;52.156;21.048;2023-04-23T00:12:23;8.90;1.00
18305;DHT22;9278;52.156;21.048;2023-04-23T00:14:52;8.80;1.00
18305;DHT22;9278;52.156;21.048;2023-04-23T00:17:22;8.80;1.00
18305;DHT22;9278;52.156;21.048;2023-04-23T00:19:50;8.70;99.90
18305;DHT22;9278;52.156;21.048;2023-04-23T00:22:19;8.60;1.00
18305;DHT22;9278;52.156;21.048;2023-04-23T00:24:47;8.50;1.00
18305;DHT22;9278;52.156;21.048;2023-04-23T00:27:16;8.40;1.00
18305;DHT22;9278;52.156;21.048;2023-04-23T00:29:48;8.40;1.00
18305;DHT22;9278;52.156;21.048;2023-04-23T00:32:17;8.30;1.00
18305;DHT22;9278;52.156;21.048;2023-04-23T00:34:47;8.20;1.00
18305;DHT22;9278;52.156;21.048;2023-04-23T00:37:15;8.30;1.00
18305;DHT22;9278;52.156;21.048;2023-04-23T00:39:43;8.50;99.90
18305;DHT22;9278;52.156;21.048;2023-04-23T00:42:12;8.50;1.00
18305;DHT22;9278;52.156;21.048;2023-04-23T00:44:42;8.40;1.00
18305;DHT22;9278;52.156;21.048;2023-04-23T00:47:11;8.30;1.00
18305;DHT22;9278;52.156;21.048;2023-04-23T00:49:40;8.50;1.00
18305;DHT22;9278;52.156;21.048;2023-04-23T00:52:10;8.60;99.90
18305;DHT22;9278;52.156;21.048;2023-04-23T00:54:39;8.70;99.90
18305;DHT22;9278;52.156;21.048;2023-04-23T00:57:08;8.50;99.90
18305;DHT22;9278;52.156;21.048;2023-04-23T00:59:36;8.50;1.00
18305;DHT22;9278;52.156;21.048;2023-04-23T01:02:04;8.40;99.90
18305;DHT22;9278;52.156;21.048;2023-04-23T01:04:34;8.50;99.90
18305;DHT22;9278;52.156;21.048;2023-04-23T01:07:03;8.30;1.00
18305;DHT22;9278;52.156;21.048;2023-04-23T01:09:33;8.20;99.90
18305;DHT22;9278;52.156;21.048;2023-04-23T01:12:02;8.20;99.90
18305;DHT22;9278;52.156;21.048;2023-04-23T01:14:32;8.10;99.90
18305;DHT22;9278;52.156;21.048;2023-04-23T01:17:01;8.10;99.90
18305;DHT22;9278;52.156;21.048;2023-04-23T01:19:29;8.00;99.90
18305;DHT22;9278;52.156;21.048;2023-04-23T01:21:59;7.90;1.00
18305;DHT22;9278;52.156;21.048;2023-04-23T01:24:30;7.90;99.90
18305;DHT22;9278;52.156;21.048;2023-04-23T01:26:58;7.80;99.90
18305;DHT22;9278;52.156;21.048;2023-04-23T01:29:28;7.70;99.90
18305;DHT22;9278;52.156;21.048;2023-04-23T01:31:57;7.70;99.90
18305;DHT22;9278;52.156;21.048;2023-04-23T01:34:26;7.80;99.90
18305;DHT22;9278;52.156;21.048;2023-04-23T01:36:55;7.90;99.90
18305;DHT22;9278;52.156;21.048;2023-04-23T01:39:24;7.90;99.90
18305;DHT22;9278;52.156;21.048;2023-04-23T01:41:53;7.80;99.90
18305;DHT22;9278;52.156;21.048;2023-04-23T01:44:23;7.80;99.90
18305;DHT22;9278;52.156;21.048;2023-04-23T01:46:51;7.80;99.90
18305;DHT22;9278;52.156;21.048;2023-04-23T01:49:20;7.60;99.90
18305;DHT22;9278;52.156;21.048;2023-04-23T01:51:48;7.50;99.90
18305;DHT22;9278;52.156;21.048;2023-04-23T01:54:16;7.40;99.90
18305;DHT22;9278;52.156;21.048;2023-04-23T01:56:45;7.50;99.90
18305;DHT22;9278;52.156;21.048;2023-04-23T01:59:16;7.50;99.90
18305;DHT22;9278;52.156;21.048;2023-04-23T02:01:46;7.40;99.90
18305;DHT22;9278;52.156;21.048;2023-04-23T02:04:17;7.60;99.90
18305;DHT22;9278;52.156;21.048;2023-04-23T02:06:49;7.80;99.90
18305;DHT22;9278;52.156;21.048;2023-04-23T02:09:18;7.70;99.90
18305;DHT22;9278;52.156;21.048;2023-04-23T02:11:48;7.80;99.90
18305;DHT22;9278;52.156;21.048;2023-04-23T02:14:18;7.70;99.90
18305;DHT22;9278;52.156;21.048;2023-04-23T02:16:46;7.80;99.90
18305;DHT22;9278;52.156;21.048;2023-04-23T02:19:16;7.60;99.90
18305;DHT22;9278;52.156;21.048;2023-04-23T02:21:44;7.50;99.90
18305;DHT22;9278;52.156;21.048;2023-04-23T02:24:12;7.70;99.90
18305;DHT22;9278;52.156;21.048;2023-04-23T02:26:40;7.50;99.90
18305;DHT22;9278;52.156;21.048;2023-04-23T02:29:09;7.60;99.90
18305;DHT22;9278;52.156;21.048;2023-04-23T02:31:38;7.50;99.90
18305;DHT22;9278;52.156;21.048;2023-04-23T02:34:06;7.40;99.90
18305;DHT22;9278;52.156;21.048;2023-04-23T02:36:35;7.50;99.90
18305;DHT22;9278;52.156;21.048;2023-04-23T02:41:33;7.40;99.90
18305;DHT22;9278;52.156;21.048;2023-04-23T02:44:01;7.40;99.90
18305;DHT22;9278;52.156;21.048;2023-04-23T02:46:29;7.20;99.90
18305;DHT22;9278;52.156;21.048;2023-04-23T02:48:59;7.30;99.90
18305;DHT22;9278;52.156;21.048;2023-04-23T02:51:28;7.00;99.90
18305;DHT22;9278;52.156;21.048;2023-04-23T02:53:57;7.20;99.90
18305;DHT22;9278;52.156;21.048;2023-04-23T02:56:25;7.20;99.90
18305;DHT22;9278;52.156;21.048;2023-04-23T02:58:53;7.20;99.90
18305;DHT22;9278;52.156;21.048;2023-04-23T03:01:22;7.30;99.90
18305;DHT22;9278;52.156;21.048;2023-04-23T03:03:50;7.30;99.90
18305;DHT22;9278;52.156;21.048;2023-04-23T03:06:20;7.20;99.90
18305;DHT22;9278;52.156;21.048;2023-04-23T03:08:49;7.20;99.90
18305;DHT22;9278;52.156;21.048;2023-04-23T03:11:17;7.30;99.90
18305;DHT22;9278;52.156;21.048;2023-04-23T03:13:45;7.30;94.80
18305;DHT22;9278;52.156;21.048;2023-04-23T03:16:14;7.40;74.50
18305;DHT22;9278;52.156;21.048;2023-04-23T03:18:43;7.30;47.30
18305;DHT22;9278;52.156;21.048;2023-04-23T03:21:11;7.40;98.40
18305;DHT22;9278;52.156;21.048;2023-04-23T03:23:41;7.40;99.90
18305;DHT22;9278;52.156;21.048;2023-04-23T03:26:09;7.40;99.90
18305;DHT22;9278;52.156;21.048;2023-04-23T03:28:37;7.50;52.90
18305;DHT22;9278;52.156;21.048;2023-04-23T03:33:34;7.60;1.70
18305;DHT22;9278;52.156;21.048;2023-04-23T03:36:03;7.50;12.20
18305;DHT22;9278;52.156;21.048;2023-04-23T03:38:32;7.60;1.00
18305;DHT22;9278;52.156;21.048;2023-04-23T03:41:04;7.60;1.00
18305;DHT22;9278;52.156;21.048;2023-04-23T03:43:34;7.60;3.00
18305;DHT22;9278;52.156;21.048;2023-04-23T03:46:22;7.60;1.00
18305;DHT22;9278;52.156;21.048;2023-04-23T03:48:51;7.60;1.00
18305;DHT22;9278;52.156;21.048;2023-04-23T03:51:25;7.60;17.90
18305;DHT22;9278;52.156;21.048;2023-04-23T03:53:54;7.60;1.00
18305;DHT22;9278;52.156;21.048;2023-04-23T03:56:34;7.70;1.00
18305;DHT22;9278;52.156;21.048;2023-04-23T03:59:22;7.70;78.10
18305;DHT22;9278;52.156;21.048;2023-04-23T04:01:53;7.70;54.60
18305;DHT22;9278;52.156;21.048;2023-04-23T04:04:24;7.70;1.00
18305;DHT22;9278;52.156;21.048;2023-04-23T04:06:54;7.80;1.00
18305;DHT22;9278;52.156;21.048;2023-04-23T04:09:26;7.80;1.00
18305;DHT22;9278;52.156;21.048;2023-04-23T04:12:01;7.70;1.00
18305;DHT22;9278;52.156;21.048;2023-04-23T04:14:30;8.00;1.00
18305;DHT22;9278;52.156;21.048;2023-04-23T04:16:58;8.00;1.00
18305;DHT22;9278;52.156;21.048;2023-04-23T04:19:27;8.00;1.00
18305;DHT22;9278;52.156;21.048;2023-04-23T04:21:55;8.10;1.00
18305;DHT22;9278;52.156;21.048;2023-04-23T04:24:23;8.10;1.00
18305;DHT22;9278;52.156;21.048;2023-04-23T04:26:53;8.30;1.00
18305;DHT22;9278;52.156;21.048;2023-04-23T04:29:23;8.30;1.00
18305;DHT22;9278;52.156;21.048;2023-04-23T04:31:51;8.20;1.00
18305;DHT22;9278;52.156;21.048;2023-04-23T04:34:20;8.50;1.00
18305;DHT22;9278;52.156;21.048;2023-04-23T04:36:49;8.50;1.00
18305;DHT22;9278;52.156;21.048;2023-04-23T04:39:19;8.70;1.00
18305;DHT22;9278;52.156;21.048;2023-04-23T04:41:47;8.70;1.00
18305;DHT22;9278;52.156;21.048;2023-04-23T04:44:16;8.80;1.00
18305;DHT22;9278;52.156;21.048;2023-04-23T04:46:45;8.90;1.00
18305;DHT22;9278;52.156;21.048;2023-04-23T04:49:14;9.10;1.00
18305;DHT22;9278;52.156;21.048;2023-04-23T04:51:45;9.10;1.00
18305;DHT22;9278;52.156;21.048;2023-04-23T04:54:13;9.20;1.00
18305;DHT22;9278;52.156;21.048;2023-04-23T04:56:41;9.20;1.00
18305;DHT22;9278;52.156;21.048;2023-04-23T04:59:10;9.30;1.00
18305;DHT22;9278;52.156;21.048;2023-04-23T05:01:38;9.30;1.00
18305;DHT22;9278;52.156;21.048;2023-04-23T05:04:07;9.50;1.00
18305;DHT22;9278;52.156;21.048;2023-04-23T05:06:36;9.60;1.00
18305;DHT22;9278;52.156;21.048;2023-04-23T05:09:04;9.60;1.00
18305;DHT22;9278;52.156;21.048;2023-04-23T05:11:32;9.80;1.00
18305;DHT22;9278;52.156;21.048;2023-04-23T05:14:02;9.90;1.00
18305;DHT22;9278;52.156;21.048;2023-04-23T05:16:30;10.00;1.00
18305;DHT22;9278;52.156;21.048;2023-04-23T05:18:58;10.10;1.00
18305;DHT22;9278;52.156;21.048;2023-04-23T05:21:28;10.30;1.00
18305;DHT22;9278;52.156;21.048;2023-04-23T05:23:57;10.50;1.00
18305;DHT22;9278;52.156;21.048;2023-04-23T05:26:25;10.50;1.00
18305;DHT22;9278;52.156;21.048;2023-04-23T05:28:53;11.10;1.00
18305;DHT22;9278;52.156;21.048;2023-04-23T05:31:22;10.80;1.00
18305;DHT22;9278;52.156;21.048;2023-04-23T05:33:51;10.80;1.00
18305;DHT22;9278;52.156;21.048;2023-04-23T05:36:19;10.80;1.00
18305;DHT22;9278;52.156;21.048;2023-04-23T05:38:49;11.00;1.00
18305;DHT22;9278;52.156;21.048;2023-04-23T05:41:17;11.10;1.00
18305;DHT22;9278;52.156;21.048;2023-04-23T05:43:45;11.30;1.00
18305;DHT22;9278;52.156;21.048;2023-04-23T05:48:42;11.60;1.00
18305;DHT22;9278;52.156;21.048;2023-04-23T05:53:39;11.90;1.00
18305;DHT22;9278;52.156;21.048;2023-04-23T05:56:08;12.00;1.00
18305;DHT22;9278;52.156;21.048;2023-04-23T05:58:36;12.20;1.00
18305;DHT22;9278;52.156;21.048;2023-04-23T06:01:05;12.50;1.00
18305;DHT22;9278;52.156;21.048;2023-04-23T06:03:34;12.50;1.00
18305;DHT22;9278;52.156;21.048;2023-04-23T06:06:04;12.70;1.00
18305;DHT22;9278;52.156;21.048;2023-04-23T06:08:32;12.60;1.00
18305;DHT22;9278;52.156;21.048;2023-04-23T06:11:01;12.70;1.00
18305;DHT22;9278;52.156;21.048;2023-04-23T06:13:30;13.00;1.00
18305;DHT22;9278;52.156;21.048;2023-04-23T06:18:27;13.10;1.00
18305;DHT22;9278;52.156;21.048;2023-04-23T06:20:56;13.30;1.00
18305;DHT22;9278;52.156;21.048;2023-04-23T06:23:24;13.30;1.00
18305;DHT22;9278;52.156;21.048;2023-04-23T06:28:21;13.60;1.00
18305;DHT22;9278;52.156;21.048;2023-04-23T06:31:11;13.60;1.00
18305;DHT22;9278;52.156;21.048;2023-04-23T06:33:39;13.60;1.00
18305;DHT22;9278;52.156;21.048;2023-04-23T06:36:08;13.70;1.00
18305;DHT22;9278;52.156;21.048;2023-04-23T06:38:37;13.80;1.00
18305;DHT22;9278;52.156;21.048;2023-04-23T06:41:05;13.80;1.00
18305;DHT22;9278;52.156;21.048;2023-04-23T06:43:33;14.00;1.00
18305;DHT22;9278;52.156;21.048;2023-04-23T06:46:21;14.10;1.00
18305;DHT22;9278;52.156;21.048;2023-04-23T06:48:49;14.20;1.00
18305;DHT22;9278;52.156;21.048;2023-04-23T06:51:17;14.40;1.00
18305;DHT22;9278;52.156;21.048;2023-04-23T06:56:14;14.70;1.00
18305;DHT22;9278;52.156;21.048;2023-04-23T07:01:17;14.80;1.00
18305;DHT22;9278;52.156;21.048;2023-04-23T07:03:47;14.90;1.00
18305;DHT22;9278;52.156;21.048;2023-04-23T07:06:17;15.10;1.00
18305;DHT22;9278;52.156;21.048;2023-04-23T07:08:45;15.40;1.00
18305;DHT22;9278;52.156;21.048;2023-04-23T07:11:14;15.30;1.00
18305;DHT22;9278;52.156;21.048;2023-04-23T07:13:42;15.30;1.00
18305;DHT22;9278;52.156;21.048;2023-04-23T07:16:11;15.60;1.00
18305;DHT22;9278;52.156;21.048;2023-04-23T07:18:39;15.70;1.00
18305;DHT22;9278;52.156;21.048;2023-04-23T07:21:09;15.80;1.00
18305;DHT22;9278;52.156;21.048;2023-04-23T07:23:37;15.80;1.00
18305;DHT22;9278;52.156;21.048;2023-04-23T07:26:05;16.20;1.00
18305;DHT22;9278;52.156;21.048;2023-04-23T07:28:33;16.30;1.00
18305;DHT22;9278;52.156;21.048;2023-04-23T07:31:01;16.30;1.00
18305;DHT22;9278;52.156;21.048;2023-04-23T07:33:30;16.50;1.00
18305;DHT22;9278;52.156;21.048;2023-04-23T07:35:58;16.50;1.00
18305;DHT22;9278;52.156;21.048;2023-04-23T07:38:27;16.50;1.00
18305;DHT22;9278;52.156;21.048;2023-04-23T07:40:56;16.70;1.00
18305;DHT22;9278;52.156;21.048;2023-04-23T07:43:24;16.90;1.00
18305;DHT22;9278;52.156;21.048;2023-04-23T07:45:52;17.00;1.00
18305;DHT22;9278;52.156;21.048;2023-04-23T07:48:20;16.90;1.00
18305;DHT22;9278;52.156;21.048;2023-04-23T07:50:49;16.90;1.00
18305;DHT22;9278;52.156;21.048;2023-04-23T07:53:17;16.90;1.00
18305;DHT22;9278;52.156;21.048;2023-04-23T07:55:47;17.20;1.00
18305;DHT22;9278;52.156;21.048;2023-04-23T07:58:15;17.30;1.00
18305;DHT22;9278;52.156;21.048;2023-04-23T08:00:43;17.30;1.00
18305;DHT22;9278;52.156;21.048;2023-04-23T08:03:12;17.40;1.00
18305;DHT22;9278;52.156;21.048;2023-04-23T08:05:40;17.40;1.00
18305;DHT22;9278;52.156;21.048;2023-04-23T08:08:11;17.60;1.00
18305;DHT22;9278;52.156;21.048;2023-04-23T08:10:40;17.70;1.00
18305;DHT22;9278;52.156;21.048;2023-04-23T08:13:09;17.80;1.00
18305;DHT22;9278;52.156;21.048;2023-04-23T08:15:38;17.70;1.00
18305;DHT22;9278;52.156;21.048;2023-04-23T08:18:06;17.90;1.00
18305;DHT22;9278;52.156;21.048;2023-04-23T08:20:34;18.00;2.60
18305;DHT22;9278;52.156;21.048;2023-04-23T08:23:03;18.20;1.00
18305;DHT22;9278;52.156;21.048;2023-04-23T08:25:32;18.00;7.60
18305;DHT22;9278;52.156;21.048;2023-04-23T08:28:00;18.00;57.70
18305;DHT22;9278;52.156;21.048;2023-04-23T08:30:31;18.30;49.40
18305;DHT22;9278;52.156;21.048;2023-04-23T08:32:59;18.20;69.90
18305;DHT22;9278;52.156;21.048;2023-04-23T08:35:27;18.30;99.90
18305;DHT22;9278;52.156;21.048;2023-04-23T08:37:55;18.40;99.90
18305;DHT22;9278;52.156;21.048;2023-04-23T08:40:25;18.40;99.90
18305;DHT22;9278;52.156;21.048;2023-04-23T08:43:00;18.40;99.90
18305;DHT22;9278;52.156;21.048;2023-04-23T08:45:30;18.60;99.90
18305;DHT22;9278;52.156;21.048;2023-04-23T08:48:00;18.60;99.90
18305;DHT22;9278;52.156;21.048;2023-04-23T08:50:29;18.60;99.90
18305;DHT22;9278;52.156;21.048;2023-04-23T08:52:58;18.50;99.90
18305;DHT22;9278;52.156;21.048;2023-04-23T08:55:26;18.70;99.90
18305;DHT22;9278;52.156;21.048;2023-04-23T08:57:57;18.80;99.90
18305;DHT22;9278;52.156;21.048;2023-04-23T09:00:26;18.90;99.90
18305;DHT22;9278;52.156;21.048;2023-04-23T09:02:56;18.80;99.90
18305;DHT22;9278;52.156;21.048;2023-04-23T09:05:26;18.80;99.90
18305;DHT22;9278;52.156;21.048;2023-04-23T09:07:56;18.80;99.90
18305;DHT22;9278;52.156;21.048;2023-04-23T09:10:24;18.80;99.90
18305;DHT22;9278;52.156;21.048;2023-04-23T09:12:53;18.80;99.90
18305;DHT22;9278;52.156;21.048;2023-04-23T09:15:21;19.00;99.90
18305;DHT22;9278;52.156;21.048;2023-04-23T09:17:49;19.10;99.90
18305;DHT22;9278;52.156;21.048;2023-04-23T09:20:19;19.10;99.90
18305;DHT22;9278;52.156;21.048;2023-04-23T09:22:48;19.30;99.90
18305;DHT22;9278;52.156;21.048;2023-04-23T09:25:18;19.40;99.90
18305;DHT22;9278;52.156;21.048;2023-04-23T09:27:48;19.50;99.90
18305;DHT22;9278;52.156;21.048;2023-04-23T09:30:18;19.40;99.90
18305;DHT22;9278;52.156;21.048;2023-04-23T09:32:47;19.30;99.90
18305;DHT22;9278;52.156;21.048;2023-04-23T09:35:16;19.40;99.90
18305;DHT22;9278;52.156;21.048;2023-04-23T09:37:48;19.40;1.00
18305;DHT22;9278;52.156;21.048;2023-04-23T09:40:21;19.50;99.90
18305;DHT22;9278;52.156;21.048;2023-04-23T09:42:51;19.60;99.90
18305;DHT22;9278;52.156;21.048;2023-04-23T09:45:22;19.60;99.90
18305;DHT22;9278;52.156;21.048;2023-04-23T09:47:52;19.50;99.90
18305;DHT22;9278;52.156;21.048;2023-04-23T09:50:31;19.80;99.90
18305;DHT22;9278;52.156;21.048;2023-04-23T09:53:01;19.70;99.90
18305;DHT22;9278;52.156;21.048;2023-04-23T09:55:30;19.80;1.00
18305;DHT22;9278;52.156;21.048;2023-04-23T09:58:02;19.70;1.00
18305;DHT22;9278;52.156;21.048;2023-04-23T10:00:35;19.70;1.00
18305;DHT22;9278;52.156;21.048;2023-04-23T10:03:05;19.70;1.00
18305;DHT22;9278;52.156;21.048;2023-04-23T10:05:37;19.90;1.00
18305;DHT22;9278;52.156;21.048;2023-04-23T10:08:27;19.80;1.00
18305;DHT22;9278;52.156;21.048;2023-04-23T10:10:55;19.80;1.00
18305;DHT22;9278;52.156;21.048;2023-04-23T10:13:44;20.10;1.00
18305;DHT22;9278;52.156;21.048;2023-04-23T10:16:12;20.10;1.00
18305;DHT22;9278;52.156;21.048;2023-04-23T10:18:51;20.20;1.00
18305;DHT22;9278;52.156;21.048;2023-04-23T10:21:24;20.20;1.00
18305;DHT22;9278;52.156;21.048;2023-04-23T10:24:09;20.20;1.00
18305;DHT22;9278;52.156;21.048;2023-04-23T10:26:40;20.10;1.00
18305;DHT22;9278;52.156;21.048;2023-04-23T10:29:14;20.10;1.00
18305;DHT22;9278;52.156;21.048;2023-04-23T10:31:45;20.20;1.00
18305;DHT22;9278;52.156;21.048;2023-04-23T10:34:14;20.30;1.00
18305;DHT22;9278;52.156;21.048;2023-04-23T10:36:43;20.30;1.00
18305;DHT22;9278;52.156;21.048;2023-04-23T10:39:13;20.10;1.00
18305;DHT22;9278;52.156;21.048;2023-04-23T10:41:55;20.20;1.00
18305;DHT22;9278;52.156;21.048;2023-04-23T10:44:31;20.20;1.00
18305;DHT22;9278;52.156;21.048;2023-04-23T10:47:19;20.30;1.00
18305;DHT22;9278;52.156;21.048;2023-04-23T10:49:48;20.50;1.00
18305;DHT22;9278;52.156;21.048;2023-04-23T10:52:18;20.50;1.00
18305;DHT22;9278;52.156;21.048;2023-04-23T10:54:57;20.40;1.00
18305;DHT22;9278;52.156;21.048;2023-04-23T10:57:26;20.30;1.00
18305;DHT22;9278;52.156;21.048;2023-04-23T10:59:55;20.40;1.00
18305;DHT22;9278;52.156;21.048;2023-04-23T11:02:25;20.40;1.00
18305;DHT22;9278;52.156;21.048;2023-04-23T11:04:55;20.70;1.00
18305;DHT22;9278;52.156;21.048;2023-04-23T11:07:25;20.70;1.00
18305;DHT22;9278;52.156;21.048;2023-04-23T11:10:00;20.70;1.00
18305;DHT22;9278;52.156;21.048;2023-04-23T11:12:31;20.70;1.00
18305;DHT22;9278;52.156;21.048;2023-04-23T11:15:09;20.80;1.00
18305;DHT22;9278;52.156;21.048;2023-04-23T11:17:58;20.80;1.00
18305;DHT22;9278;52.156;21.048;2023-04-23T11:20:26;20.90;1.00
18305;DHT22;9278;52.156;21.048;2023-04-23T11:22:54;20.80;1.00
18305;DHT22;9278;52.156;21.048;2023-04-23T11:25:25;20.80;1.00
18305;DHT22;9278;52.156;21.048;2023-04-23T11:27:56;20.80;1.00
18305;DHT22;9278;52.156;21.048;2023-04-23T11:30:26;20.90;1.00
18305;DHT22;9278;52.156;21.048;2023-04-23T11:32:56;20.90;1.00
18305;DHT22;9278;52.156;21.048;2023-04-23T11:35:26;21.00;1.00
18305;DHT22;9278;52.156;21.048;2023-04-23T11:37:56;20.90;1.00
18305;DHT22;9278;52.156;21.048;2023-04-23T11:40:26;21.00;1.00
18305;DHT22;9278;52.156;21.048;2023-04-23T11:42:57;21.00;1.00
18305;DHT22;9278;52.156;21.048;2023-04-23T11:45:26;21.00;1.00
18305;DHT22;9278;52.156;21.048;2023-04-23T11:47:56;21.10;1.00
18305;DHT22;9278;52.156;21.048;2023-04-23T11:50:26;21.20;1.00
18305;DHT22;9278;52.156;21.048;2023-04-23T11:52:55;21.00;1.00
18305;DHT22;9278;52.156;21.048;2023-04-23T11:55:25;21.10;1.00
18305;DHT22;9278;52.156;21.048;2023-04-23T11:57:56;21.10;1.00
18305;DHT22;9278;52.156;21.048;2023-04-23T12:00:25;21.10;1.00
18305;DHT22;9278;52.156;21.048;2023-04-23T12:02:55;21.30;1.00
18305;DHT22;9278;52.156;21.048;2023-04-23T12:05:28;21.30;71.30
18305;DHT22;9278;52.156;21.048;2023-04-23T12:08:08;21.40;1.00
18305;DHT22;9278;52.156;21.048;2023-04-23T12:10:46;21.40;1.00
18305;DHT22;9278;52.156;21.048;2023-04-23T12:13:15;21.40;60.10
18305;DHT22;9278;52.156;21.048;2023-04-23T12:15:45;21.30;1.00
18305;DHT22;9278;52.156;21.048;2023-04-23T12:18:14;21.40;1.00
18305;DHT22;9278;52.156;21.048;2023-04-23T12:20:42;21.50;1.00
18305;DHT22;9278;52.156;21.048;2023-04-23T12:23:11;21.50;1.00
18305;DHT22;9278;52.156;21.048;2023-04-23T12:25:39;21.50;1.00
18305;DHT22;9278;52.156;21.048;2023-04-23T12:28:09;21.50;33.30
18305;DHT22;9278;52.156;21.048;2023-04-23T12:30:43;21.60;99.90
18305;DHT22;9278;52.156;21.048;2023-04-23T12:33:11;21.50;19.60
18305;DHT22;9278;52.156;21.048;2023-04-23T12:35:40;21.40;99.90
18305;DHT22;9278;52.156;21.048;2023-04-23T12:38:20;21.50;99.90
18305;DHT22;9278;52.156;21.048;2023-04-23T12:40:50;21.50;36.20
18305;DHT22;9278;52.156;21.048;2023-04-23T12:43:19;21.60;99.90
18305;DHT22;9278;52.156;21.048;2023-04-23T12:45:48;21.60;99.90
18305;DHT22;9278;52.156;21.048;2023-04-23T12:48:17;21.60;1.00
18305;DHT22;9278;52.156;21.048;2023-04-23T12:50:46;21.50;13.20
18305;DHT22;9278;52.156;21.048;2023-04-23T12:53:14;21.60;99.90
18305;DHT22;9278;52.156;21.048;2023-04-23T12:55:43;21.70;1.00
18305;DHT22;9278;52.156;21.048;2023-04-23T12:58:11;21.60;99.90
18305;DHT22;9278;52.156;21.048;2023-04-23T13:00:41;21.60;99.90
18305;DHT22;9278;52.156;21.048;2023-04-23T13:03:09;21.60;99.90
18305;DHT22;9278;52.156;21.048;2023-04-23T13:05:40;21.60;18.80
18305;DHT22;9278;52.156;21.048;2023-04-23T13:08:08;21.70;1.00
18305;DHT22;9278;52.156;21.048;2023-04-23T13:10:36;21.80;99.90
18305;DHT22;9278;52.156;21.048;2023-04-23T13:13:04;21.80;99.60
18305;DHT22;9278;52.156;21.048;2023-04-23T13:15:32;21.90;99.90
18305;DHT22;9278;52.156;21.048;2023-04-23T13:18:02;22.00;99.90
18305;DHT22;9278;52.156;21.048;2023-04-23T13:20:30;22.00;90.60
18305;DHT22;9278;52.156;21.048;2023-04-23T13:22:59;21.90;92.60
18305;DHT22;9278;52.156;21.048;2023-04-23T13:25:28;21.80;99.90
18305;DHT22;9278;52.156;21.048;2023-04-23T13:27:57;21.90;99.90
18305;DHT22;9278;52.156;21.048;2023-04-23T13:30:25;21.90;99.90
18305;DHT22;9278;52.156;21.048;2023-04-23T13:32:53;21.90;99.90
18305;DHT22;9278;52.156;21.048;2023-04-23T13:35:25;21.90;99.90
18305;DHT22;9278;52.156;21.048;2023-04-23T13:37:53;21.90;99.90
18305;DHT22;9278;52.156;21.048;2023-04-23T13:40:21;21.90;99.90
18305;DHT22;9278;52.156;21.048;2023-04-23T13:42:50;21.90;99.90
18305;DHT22;9278;52.156;21.048;2023-04-23T13:45:21;22.00;99.90
18305;DHT22;9278;52.156;21.048;2023-04-23T13:47:49;21.90;99.90
18305;DHT22;9278;52.156;21.048;2023-04-23T13:50:17;21.90;99.90
18305;DHT22;9278;52.156;21.048;2023-04-23T13:52:47;21.80;99.90
18305;DHT22;9278;52.156;21.048;2023-04-23T13:55:15;21.90;99.90
18305;DHT22;9278;52.156;21.048;2023-04-23T13:57:43;21.90;99.90
18305;DHT22;9278;52.156;21.048;2023-04-23T14:00:13;21.90;99.90
18305;DHT22;9278;52.156;21.048;2023-04-23T14:02:41;22.00;99.90
18305;DHT22;9278;52.156;21.048;2023-04-23T14:05:10;21.90;99.90
18305;DHT22;9278;52.156;21.048;2023-04-23T14:07:38;22.00;99.90
18305;DHT22;9278;52.156;21.048;2023-04-23T14:10:08;22.00;99.90
18305;DHT22;9278;52.156;21.048;2023-04-23T14:12:36;22.00;1.00
18305;DHT22;9278;52.156;21.048;2023-04-23T14:15:06;21.90;99.90
18305;DHT22;9278;52.156;21.048;2023-04-23T14:20:06;22.20;1.00
18305;DHT22;9278;52.156;21.048;2023-04-23T14:22:35;22.00;99.90
18305;DHT22;9278;52.156;21.048;2023-04-23T14:25:09;22.00;99.90
18305;DHT22;9278;52.156;21.048;2023-04-23T14:27:45;21.90;99.90
18305;DHT22;9278;52.156;21.048;2023-04-23T14:30:15;21.90;99.90
18305;DHT22;9278;52.156;21.048;2023-04-23T14:32:44;21.90;99.90
18305;DHT22;9278;52.156;21.048;2023-04-23T14:35:16;21.90;99.90
18305;DHT22;9278;52.156;21.048;2023-04-23T14:37:55;21.80;99.90
18305;DHT22;9278;52.156;21.048;2023-04-23T14:40:24;21.80;99.90
18305;DHT22;9278;52.156;21.048;2023-04-23T14:42:53;21.70;99.90
18305;DHT22;9278;52.156;21.048;2023-04-23T14:45:30;21.80;99.90
18305;DHT22;9278;52.156;21.048;2023-04-23T14:47:59;21.90;99.90
18305;DHT22;9278;52.156;21.048;2023-04-23T14:50:27;21.90;1.00
18305;DHT22;9278;52.156;21.048;2023-04-23T14:52:55;21.90;1.00
18305;DHT22;9278;52.156;21.048;2023-04-23T14:55:26;22.10;99.90
18305;DHT22;9278;52.156;21.048;2023-04-23T14:57:54;22.00;99.90
18305;DHT22;9278;52.156;21.048;2023-04-23T15:00:22;21.90;1.00
18305;DHT22;9278;52.156;21.048;2023-04-23T15:02:51;21.90;99.90
18305;DHT22;9278;52.156;21.048;2023-04-23T15:05:19;21.80;1.00
18305;DHT22;9278;52.156;21.048;2023-04-23T15:07:48;21.90;99.90
18305;DHT22;9278;52.156;21.048;2023-04-23T15:10:17;21.80;1.00
18305;DHT22;9278;52.156;21.048;2023-04-23T15:12:54;21.90;1.00
18305;DHT22;9278;52.156;21.048;2023-04-23T15:15:36;21.70;1.00
18305;DHT22;9278;52.156;21.048;2023-04-23T15:18:11;21.70;99.90
18305;DHT22;9278;52.156;21.048;2023-04-23T15:20:40;21.60;99.90
18305;DHT22;9278;52.156;21.048;2023-04-23T15:23:08;21.70;99.90
18305;DHT22;9278;52.156;21.048;2023-04-23T15:25:36;21.70;99.90
18305;DHT22;9278;52.156;21.048;2023-04-23T15:28:06;21.60;1.00
18305;DHT22;9278;52.156;21.048;2023-04-23T15:30:34;21.50;99.90
18305;DHT22;9278;52.156;21.048;2023-04-23T15:33:03;21.50;99.90
18305;DHT22;9278;52.156;21.048;2023-04-23T15:35:31;21.50;99.90
18305;DHT22;9278;52.156;21.048;2023-04-23T15:37:59;21.50;1.00
18305;DHT22;9278;52.156;21.048;2023-04-23T15:40:28;21.40;99.90
18305;DHT22;9278;52.156;21.048;2023-04-23T15:42:57;21.50;99.90
18305;DHT22;9278;52.156;21.048;2023-04-23T15:45:27;21.40;99.90
18305;DHT22;9278;52.156;21.048;2023-04-23T15:47:55;21.40;99.90
18305;DHT22;9278;52.156;21.048;2023-04-23T15:50:23;21.50;99.90
18305;DHT22;9278;52.156;21.048;2023-04-23T15:52:53;21.50;99.90
18305;DHT22;9278;52.156;21.048;2023-04-23T15:55:23;21.50;99.90
18305;DHT22;9278;52.156;21.048;2023-04-23T15:57:51;21.40;99.90
18305;DHT22;9278;52.156;21.048;2023-04-23T16:00:20;21.40;99.90
18305;DHT22;9278;52.156;21.048;2023-04-23T16:02:49;21.30;99.90
18305;DHT22;9278;52.156;21.048;2023-04-23T16:05:18;21.30;1.00
18305;DHT22;9278;52.156;21.048;2023-04-23T16:08:28;21.30;99.90
18305;DHT22;9278;52.156;21.048;2023-04-23T16:11:10;21.20;99.90
18305;DHT22;9278;52.156;21.048;2023-04-23T16:13:59;21.30;99.90
18305;DHT22;9278;52.156;21.048;2023-04-23T16:16:40;21.30;99.90
18305;DHT22;9278;52.156;21.048;2023-04-23T16:19:29;21.30;99.90
18305;DHT22;9278;52.156;21.048;2023-04-23T16:22:25;21.20;99.90
18305;DHT22;9278;52.156;21.048;2023-04-23T16:25:06;21.10;99.90
18305;DHT22;9278;52.156;21.048;2023-04-23T16:27:55;21.00;99.90
18305;DHT22;9278;52.156;21.048;2023-04-23T16:30:37;20.80;99.90